Time;durP1;ratioP1;P1;durP2;ratioP2;P2;SDS_P1;SDS_P2;PMS_P1;PMS_P2;Temp;Humidity;BMP_temperature;BMP_pressure;BME280_temperature;BME280_humidity;BME280_pressure;Samples;Min_cycle;Max_cycle;Signal;HPM_P1;HPM_P2
2021/09/15 00:01:45;;;;;;;1.92;0.90;;;10.20;70.10;;;;;;5037345;28;20035;-78
2021/09/15 00:04:11;;;;;;;1.75;1.08;;;10.20;70.30;;;;;;5055384;28;20052;-77
2021/09/15 00:06:37;;;;;;;1.42;1.13;;;10.20;70.30;;;;;;5055691;28;20067;-79
2021/09/15 00:09:03;;;;;;;1.58;0.88;;;10.30;70.80;;;;;;5055411;28;20031;-78
2021/09/15 00:11:29;;;;;;;2.53;1.00;;;10.20;70.40;;;;;;5037251;28;20048;-80
2021/09/15 00:13:55;;;;;;;5.28;1.20;;;10.20;70.60;;;;;;5054990;28;20053;-83
2021/09/15 00:16:21;;;;;;;1.35;1.08;;;10.20;70.60;;;;;;5053751;28;20021;-79
2021/09/15 00:18:46;;;;;;;2.20;1.00;;;10.20;70.70;;;;;;5037292;28;20070;-79
2021/09/15 00:21:12;;;;;;;2.05;0.88;;;10.20;70.80;;;;;;5052598;28;20478;-78
2021/09/15 00:23:38;;;;;;;4.78;2.22;;;10.20;70.70;;;;;;5054783;28;20032;-79
2021/09/15 00:26:04;;;;;;;2.63;1.33;;;10.20;70.90;;;;;;5054556;28;20526;-78
2021/09/15 00:28:30;;;;;;;4.35;1.13;;;10.10;71.10;;;;;;5053347;28;20059;-79
2021/09/15 00:30:56;;;;;;;3.35;1.58;;;10.20;71.20;;;;;;5054497;28;20110;-79
2021/09/15 00:33:22;;;;;;;4.90;1.65;;;10.10;71.10;;;;;;5054190;28;20020;-79
2021/09/15 00:35:48;;;;;;;2.42;1.13;;;10.20;71.30;;;;;;5054408;28;20482;-79
2021/09/15 00:38:14;;;;;;;3.78;1.30;;;10.10;71.40;;;;;;5054324;28;20103;-78
2021/09/15 00:40:39;;;;;;;3.72;1.27;;;10.20;71.50;;;;;;5054512;28;20486;-79
2021/09/15 00:43:05;;;;;;;3.78;1.10;;;10.10;71.60;;;;;;5053005;28;20087;-79
2021/09/15 00:45:31;;;;;;;2.63;1.50;;;10.10;71.80;;;;;;5054260;28;20382;-78
2021/09/15 00:47:57;;;;;;;2.70;1.13;;;10.10;71.90;;;;;;5052958;28;20021;-79
2021/09/15 00:50:23;;;;;;;3.20;1.13;;;10.20;71.90;;;;;;5036214;28;20060;-79
2021/09/15 00:52:48;;;;;;;3.85;1.23;;;10.20;71.90;;;;;;5054183;28;20547;-79
2021/09/15 00:55:14;;;;;;;3.30;1.10;;;10.20;72.00;;;;;;5054010;28;20405;-79
2021/09/15 00:57:41;;;;;;;7.15;1.02;;;10.20;72.00;;;;;;5054114;28;20335;-78
2021/09/15 01:00:07;;;;;;;1.73;1.00;;;10.20;72.20;;;;;;5053714;28;20020;-79
2021/09/15 01:02:34;;;;;;;5.47;0.65;;;10.10;72.40;;;;;;5054076;28;20087;-79
2021/09/15 01:04:59;;;;;;;2.47;1.17;;;10.10;72.60;;;;;;5053908;28;20025;-77
2021/09/15 01:07:26;;;;;;;9.13;1.48;;;10.10;72.70;;;;;;5053869;28;20099;-79
2021/09/15 01:09:52;;;;;;;2.92;1.20;;;10.10;72.90;;;;;;5053785;28;20025;-80
2021/09/15 01:12:18;;;;;;;7.47;1.05;;;10.10;72.90;;;;;;5052525;28;20040;-80
2021/09/15 01:14:45;;;;;;;6.03;1.42;;;10.10;73.60;;;;;;5053799;28;20052;-80
2021/09/15 01:17:10;;;;;;;3.40;1.15;;;10.10;73.30;;;;;;5053645;28;20027;-79
2021/09/15 01:19:36;;;;;;;2.50;1.13;;;10.10;73.30;;;;;;5053548;28;20013;-79
2021/09/15 01:22:03;;;;;;;2.88;1.02;;;10.20;73.20;;;;;;5053586;28;20032;-79
2021/09/15 01:24:30;;;;;;;4.03;1.00;;;10.20;73.10;;;;;;5053947;28;20569;-77
2021/09/15 01:26:57;;;;;;;3.13;1.00;;;10.20;73.30;;;;;;5053798;28;20102;-79
2021/09/15 01:29:29;;;;;;;2.37;0.97;;;10.10;73.40;;;;;;5053068;28;20040;-79
2021/09/15 01:32:00;;;;;;;9.88;1.20;;;10.20;73.50;;;;;;5053669;28;20294;-79
2021/09/15 01:34:27;;;;;;;3.90;1.00;;;10.10;73.40;;;;;;5053213;28;20021;-80
2021/09/15 01:36:52;;;;;;;3.85;1.13;;;10.20;73.50;;;;;;5055007;28;20021;-79
2021/09/15 01:39:18;;;;;;;3.38;1.55;;;10.10;73.50;;;;;;5059001;28;20075;-78
2021/09/15 01:41:44;;;;;;;2.58;1.02;;;10.10;73.70;;;;;;5052325;28;20478;-80
2021/09/15 01:44:10;;;;;;;3.15;1.10;;;10.00;73.80;;;;;;5052608;28;20040;-79
2021/09/15 01:46:36;;;;;;;1.70;1.13;;;10.10;74.00;;;;;;5053253;28;20036;-78
2021/09/15 01:49:01;;;;;;;2.45;1.23;;;10.00;74.20;;;;;;5053235;28;20121;-80
2021/09/15 01:51:27;;;;;;;2.85;1.08;;;10.00;74.20;;;;;;5053475;28;20063;-80
2021/09/15 01:53:53;;;;;;;3.13;1.20;;;10.00;74.30;;;;;;5053270;28;20032;-79
2021/09/15 01:56:19;;;;;;;1.80;1.02;;;10.00;74.60;;;;;;5052824;28;20028;-81
2021/09/15 01:58:45;;;;;;;5.13;0.95;;;10.00;74.60;;;;;;5053104;28;20056;-80
2021/09/15 02:01:10;;;;;;;1.60;1.00;;;10.00;74.80;;;;;;5034973;28;20029;-79
2021/09/15 02:03:36;;;;;;;3.17;1.17;;;10.10;74.90;;;;;;5052956;28;20378;-80
2021/09/15 02:06:02;;;;;;;2.40;0.90;;;10.10;74.80;;;;;;5052947;28;20025;-81
2021/09/15 02:08:28;;;;;;;2.95;1.15;;;10.10;74.80;;;;;;5034772;28;20037;-79
2021/09/15 02:10:53;;;;;;;3.22;1.38;;;10.10;74.90;;;;;;5053338;28;20021;-80
2021/09/15 02:13:19;;;;;;;3.97;1.40;;;10.10;74.90;;;;;;5052854;28;20086;-79
2021/09/15 02:15:45;;;;;;;5.57;1.25;;;10.10;75.00;;;;;;5052923;28;20032;-80
2021/09/15 02:18:11;;;;;;;3.40;1.48;;;10.10;75.20;;;;;;5052649;28;20025;-81
2021/09/15 02:20:38;;;;;;;4.10;1.35;;;10.10;75.30;;;;;;5052560;28;20049;-78
2021/09/15 02:23:04;;;;;;;1.65;1.05;;;10.10;75.30;;;;;;5052697;28;20028;-80
2021/09/15 02:25:29;;;;;;;3.22;1.05;;;10.10;75.30;;;;;;5052745;28;20040;-80
2021/09/15 02:27:55;;;;;;;2.00;0.95;;;10.10;75.40;;;;;;5052542;28;20020;-79
2021/09/15 02:30:21;;;;;;;3.22;1.05;;;10.10;75.40;;;;;;5052134;28;20126;-80
2021/09/15 02:32:47;;;;;;;2.85;1.30;;;10.10;75.60;;;;;;5052515;28;20031;-80
2021/09/15 02:35:13;;;;;;;3.40;1.23;;;10.10;75.80;;;;;;5052487;28;20078;-80
2021/09/15 02:37:39;;;;;;;1.13;0.88;;;10.10;75.80;;;;;;5052375;28;20009;-80
2021/09/15 02:40:06;;;;;;;1.75;0.90;;;10.10;75.60;;;;;;5052426;28;20526;-80
2021/09/15 02:42:32;;;;;;;3.08;0.90;;;10.10;75.70;;;;;;5052236;28;20079;-80
2021/09/15 02:44:58;;;;;;;2.70;0.70;;;10.00;75.70;;;;;;5052370;28;20060;-80
2021/09/15 02:47:24;;;;;;;2.58;1.25;;;10.00;76.10;;;;;;5052240;28;20034;-80
2021/09/15 02:49:50;;;;;;;5.50;1.45;;;10.00;76.40;;;;;;5052404;28;20033;-79
2021/09/15 02:52:16;;;;;;;3.70;1.40;;;10.00;76.30;;;;;;5052438;28;20036;-79
2021/09/15 02:54:41;;;;;;;2.03;0.88;;;10.00;76.30;;;;;;5052573;28;20021;-78
2021/09/15 02:57:07;;;;;;;2.10;1.13;;;10.00;76.30;;;;;;5033913;28;20021;-79
2021/09/15 02:59:33;;;;;;;2.60;1.02;;;10.00;76.60;;;;;;5034226;28;20051;-80
2021/09/15 03:01:59;;;;;;;4.47;1.23;;;10.00;76.70;;;;;;5052254;28;20512;-79
2021/09/15 03:04:25;;;;;;;2.65;1.15;;;10.00;76.80;;;;;;5052107;28;20040;-79
2021/09/15 03:06:51;;;;;;;1.75;0.90;;;10.00;76.80;;;;;;5052327;28;20028;-80
2021/09/15 03:09:17;;;;;;;2.63;0.80;;;10.00;76.80;;;;;;5052096;28;20029;-77
2021/09/15 03:11:43;;;;;;;7.68;1.30;;;10.10;77.00;;;;;;5052050;28;20393;-80
2021/09/15 03:14:09;;;;;;;1.38;1.00;;;10.10;76.70;;;;;;5052079;28;20025;-79
2021/09/15 03:16:34;;;;;;;1.58;1.00;;;10.00;76.90;;;;;;5051930;28;20336;-79
2021/09/15 03:19:00;;;;;;;2.03;1.10;;;10.10;77.10;;;;;;5051876;28;20028;-79
2021/09/15 03:21:26;;;;;;;3.30;1.05;;;10.10;77.00;;;;;;5052187;28;20025;-78
2021/09/15 03:23:52;;;;;;;3.13;1.30;;;10.10;76.90;;;;;;5051825;28;20452;-80
2021/09/15 03:26:18;;;;;;;6.47;1.40;;;10.10;77.00;;;;;;5052315;28;20108;-79
2021/09/15 03:28:44;;;;;;;2.03;1.17;;;10.10;76.90;;;;;;5052022;28;20049;-79
2021/09/15 03:31:10;;;;;;;2.15;1.10;;;10.10;76.90;;;;;;5052580;28;20057;-80
2021/09/15 03:33:36;;;;;;;2.28;1.00;;;10.10;77.10;;;;;;5054836;28;20025;-79
2021/09/15 03:36:02;;;;;;;2.83;1.52;;;10.00;77.40;;;;;;5053447;28;20021;-79
2021/09/15 03:38:28;;;;;;;2.33;1.35;;;10.10;77.60;;;;;;5051835;28;20021;-79
2021/09/15 03:40:53;;;;;;;4.25;1.20;;;10.00;77.70;;;;;;5051906;28;20386;-80
2021/09/15 03:43:19;;;;;;;8.98;4.13;;;10.00;77.70;;;;;;5052254;28;20044;-80
2021/09/15 03:45:45;;;;;;;1.92;0.98;;;10.00;77.80;;;;;;5051882;28;20470;-80
2021/09/15 03:48:14;;;;;;;5.82;1.40;;;10.00;77.80;;;;;;5033968;28;20097;-79
2021/09/15 03:50:40;;;;;;;1.58;1.13;;;10.10;77.90;;;;;;5051507;28;20040;-79
2021/09/15 03:53:06;;;;;;;6.72;1.30;;;10.10;77.90;;;;;;5051703;28;20475;-80
2021/09/15 03:55:31;;;;;;;3.47;2.00;;;10.10;77.80;;;;;;5033784;28;20436;-80
2021/09/15 03:57:57;;;;;;;3.85;1.85;;;10.20;77.90;;;;;;5050245;28;20342;-78
2021/09/15 04:00:23;;;;;;;6.18;1.27;;;10.20;77.90;;;;;;5051670;28;20152;-79
2021/09/15 04:02:49;;;;;;;2.22;1.23;;;10.20;77.80;;;;;;5051458;28;20485;-80
2021/09/15 04:05:14;;;;;;;3.13;1.48;;;10.20;77.90;;;;;;5051678;28;20029;-79
2021/09/15 04:07:40;;;;;;;2.33;1.13;;;10.20;77.90;;;;;;5053222;28;20024;-80
2021/09/15 04:10:07;;;;;;;2.83;1.63;;;10.20;77.90;;;;;;5055282;28;20036;-79
2021/09/15 04:12:33;;;;;;;4.25;1.45;;;10.20;77.90;;;;;;5055344;28;20509;-80
2021/09/15 04:14:59;;;;;;;2.42;1.30;;;10.20;77.90;;;;;;5056427;28;20029;-81
2021/09/15 04:17:24;;;;;;;4.57;1.27;;;10.20;77.90;;;;;;5055333;28;20021;-80
2021/09/15 04:19:50;;;;;;;1.92;1.38;;;10.20;77.70;;;;;;5054884;28;20100;-81
2021/09/15 04:22:19;;;;;;;7.25;1.67;;;10.20;77.90;;;;;;5054942;28;20028;-80
2021/09/15 04:33:03;;;;;;;5.55;1.65;;;10.30;78.20;;;;;;5054960;28;20090;-81
2021/09/15 04:35:29;;;;;;;3.00;1.10;;;10.30;78.20;;;;;;5054309;28;20028;-81
2021/09/15 04:37:55;;;;;;;6.47;1.60;;;10.40;78.00;;;;;;5054741;28;20389;-82
2021/09/15 04:40:21;;;;;;;2.53;1.25;;;10.30;77.90;;;;;;5054405;28;20171;-81
2021/09/15 04:42:47;;;;;;;4.22;1.80;;;10.30;77.90;;;;;;5054622;28;20022;-81
2021/09/15 04:45:12;;;;;;;6.30;1.80;;;10.30;77.60;;;;;;5054345;28;20075;-81
2021/09/15 04:47:38;;;;;;;3.78;1.70;;;10.20;77.90;;;;;;5054308;28;20025;-83
2021/09/15 04:50:05;;;;;;;3.70;1.58;;;10.20;78.60;;;;;;5052855;28;20028;-80
2021/09/15 04:52:31;;;;;;;5.30;1.20;;;10.20;78.40;;;;;;5036198;28;20543;-80
2021/09/15 04:54:56;;;;;;;3.50;1.25;;;10.30;78.30;;;;;;5054152;28;20025;-81
2021/09/15 04:57:22;;;;;;;5.25;1.77;;;10.30;78.10;;;;;;5053837;28;20025;-80
2021/09/15 04:59:48;;;;;;;2.30;1.42;;;10.30;78.20;;;;;;5054173;28;20442;-80
2021/09/15 05:02:14;;;;;;;2.60;1.55;;;10.30;78.50;;;;;;5054180;28;20021;-81
2021/09/15 05:04:40;;;;;;;7.18;1.75;;;10.40;78.20;;;;;;5052754;28;20017;-81
2021/09/15 05:07:05;;;;;;;4.82;1.75;;;10.40;77.90;;;;;;5053937;28;20025;-80
2021/09/15 05:09:31;;;;;;;3.00;1.25;;;10.40;78.00;;;;;;5054196;28;20482;-81
2021/09/15 05:11:57;;;;;;;3.72;1.63;;;10.40;77.90;;;;;;5053319;28;20425;-83
2021/09/15 05:14:23;;;;;;;3.58;1.80;;;10.40;77.90;;;;;;5055944;28;20090;-80
2021/09/15 05:16:48;;;;;;;2.58;1.58;;;10.30;78.30;;;;;;5054032;28;20048;-80
2021/09/15 05:19:14;;;;;;;3.42;1.27;;;10.40;78.40;;;;;;5053567;28;20036;-81
2021/09/15 05:21:40;;;;;;;4.38;1.73;;;10.40;78.40;;;;;;5053319;28;20111;-80
2021/09/15 05:24:06;;;;;;;3.85;2.15;;;10.40;78.40;;;;;;5055214;28;20474;-81
2021/09/15 05:26:32;;;;;;;2.92;1.73;;;10.40;78.40;;;;;;5063813;28;20073;-81
2021/09/15 05:28:57;;;;;;;3.00;1.33;;;10.40;78.50;;;;;;5055854;28;20029;-81
2021/09/15 05:31:23;;;;;;;1.50;1.25;;;10.30;78.50;;;;;;5052591;28;20052;-82
2021/09/15 05:33:49;;;;;;;3.13;1.60;;;10.20;78.70;;;;;;5053015;28;20028;-80
2021/09/15 05:36:15;;;;;;;6.40;3.08;;;10.20;79.30;;;;;;5053269;28;20024;-80
2021/09/15 05:38:40;;;;;;;5.47;1.90;;;10.20;79.70;;;;;;5053047;28;20036;-81
2021/09/15 05:41:06;;;;;;;3.95;1.90;;;10.30;80.10;;;;;;5053456;28;20017;-81
2021/09/15 05:43:34;;;;;;;2.78;1.85;;;10.30;80.40;;;;;;5054370;28;20086;-81
2021/09/15 05:46:00;;;;;;;7.18;2.17;;;10.30;80.80;;;;;;5052875;28;20021;-81
2021/09/15 05:48:25;;;;;;;5.55;1.92;;;10.30;80.90;;;;;;5052817;28;20055;-80
2021/09/15 05:50:51;;;;;;;4.50;1.60;;;10.30;80.60;;;;;;5050673;28;20037;-80
2021/09/15 05:53:17;;;;;;;2.60;2.03;;;10.30;80.70;;;;;;5054789;28;20021;-82
2021/09/15 05:55:43;;;;;;;5.68;1.40;;;10.40;80.60;;;;;;5053690;28;20013;-80
2021/09/15 05:58:09;;;;;;;4.18;2.08;;;10.50;80.40;;;;;;5035824;28;20035;-81
2021/09/15 06:00:35;;;;;;;6.55;1.50;;;10.60;79.80;;;;;;5052394;28;20079;-82
2021/09/15 06:03:01;;;;;;;7.28;1.70;;;10.70;79.30;;;;;;5053676;28;20017;-82
2021/09/15 06:05:26;;;;;;;4.85;1.45;;;10.80;78.90;;;;;;5054281;28;20032;-81
2021/09/15 06:07:52;;;;;;;11.40;1.75;;;10.70;78.40;;;;;;5050456;28;20013;-81
2021/09/15 06:10:18;;;;;;;3.80;1.50;;;10.60;78.60;;;;;;5047897;28;20478;-81
2021/09/15 06:12:44;;;;;;;7.10;1.55;;;10.60;78.70;;;;;;5053907;28;20104;-80
2021/09/15 06:15:10;;;;;;;9.43;2.15;;;10.60;79.00;;;;;;5052935;28;20032;-81
2021/09/15 06:17:36;;;;;;;8.63;1.63;;;10.70;79.10;;;;;;5032089;28;20120;-79
2021/09/15 06:20:02;;;;;;;3.38;1.35;;;10.70;78.80;;;;;;5051601;28;20155;-81
2021/09/15 06:22:28;;;;;;;3.72;1.50;;;10.80;78.30;;;;;;5051661;28;20017;-79
2021/09/15 06:24:54;;;;;;;6.90;1.65;;;10.70;78.40;;;;;;5053150;28;20035;-82
2021/09/15 06:27:22;;;;;;;6.60;1.65;;;10.70;78.90;;;;;;5053199;28;20390;-81
2021/09/15 06:29:48;;;;;;;3.63;1.50;;;10.70;79.00;;;;;;5053196;28;20041;-81
2021/09/15 06:32:14;;;;;;;2.30;1.33;;;10.60;79.10;;;;;;5052972;28;20367;-82
2021/09/15 06:34:40;;;;;;;3.47;1.50;;;10.60;78.90;;;;;;5052941;28;20024;-81
2021/09/15 06:37:06;;;;;;;6.93;1.58;;;10.70;78.90;;;;;;5053048;28;20031;-79
2021/09/15 06:39:32;;;;;;;1.77;1.25;;;10.70;78.50;;;;;;5052767;28;20061;-80
2021/09/15 06:41:57;;;;;;;4.32;1.10;;;10.70;77.90;;;;;;5051434;28;20071;-81
2021/09/15 06:44:23;;;;;;;2.35;1.48;;;10.70;78.10;;;;;;5052304;28;20035;-84
2021/09/15 06:46:49;;;;;;;2.65;1.30;;;10.60;78.00;;;;;;5053335;28;20053;-80
2021/09/15 06:49:15;;;;;;;2.95;1.35;;;10.70;78.20;;;;;;5053505;28;20481;-82
2021/09/15 06:51:40;;;;;;;5.00;1.25;;;10.70;77.90;;;;;;5051383;28;20082;-81
2021/09/15 06:54:07;;;;;;;3.40;1.65;;;10.80;78.10;;;;;;5034811;28;20029;-82
2021/09/15 06:56:33;;;;;;;5.93;1.45;;;10.80;77.90;;;;;;5052697;28;20473;-81
2021/09/15 06:58:58;;;;;;;1.73;1.25;;;10.80;77.80;;;;;;5052443;28;20093;-83
2021/09/15 07:01:25;;;;;;;3.95;1.55;;;10.90;78.10;;;;;;5051633;28;20025;-81
2021/09/15 07:03:51;;;;;;;5.72;1.10;;;10.80;78.10;;;;;;5052810;28;20025;-82
2021/09/15 07:06:17;;;;;;;6.93;1.55;;;10.80;78.30;;;;;;5035019;28;20020;-82
2021/09/15 07:08:43;;;;;;;1.85;0.90;;;10.70;78.60;;;;;;5053583;28;20100;-81
2021/09/15 07:11:09;;;;;;;1.08;0.90;;;10.60;78.60;;;;;;5052994;28;20496;-82
2021/09/15 07:13:35;;;;;;;2.85;1.17;;;10.50;79.40;;;;;;5035355;28;20031;-82
2021/09/15 07:16:01;;;;;;;2.42;1.25;;;10.50;79.90;;;;;;5053057;28;20060;-82
2021/09/15 07:18:28;;;;;;;2.53;1.42;;;10.40;80.00;;;;;;5057678;28;20028;-82
2021/09/15 07:20:55;;;;;;;2.42;1.10;;;10.40;79.90;;;;;;5060128;28;20020;-80
2021/09/15 07:23:20;;;;;;;4.87;1.00;;;10.40;80.20;;;;;;5058082;28;20509;-82
2021/09/15 07:25:46;;;;;;;2.75;1.33;;;10.40;80.30;;;;;;5035284;28;20017;-82
2021/09/15 07:28:12;;;;;;;3.55;1.55;;;10.40;80.60;;;;;;5052527;28;20029;-81
2021/09/15 07:30:38;;;;;;;3.13;1.20;;;10.50;79.90;;;;;;5050407;28;20053;-82
2021/09/15 07:33:04;;;;;;;6.30;2.28;;;10.60;79.70;;;;;;5034239;28;20173;-81
2021/09/15 07:35:30;;;;;;;3.17;1.50;;;10.60;79.00;;;;;;5033696;28;20040;-80
2021/09/15 07:37:55;;;;;;;8.05;2.25;;;10.60;78.30;;;;;;5051831;28;20025;-81
2021/09/15 07:40:22;;;;;;;2.05;1.35;;;10.70;78.40;;;;;;5052062;28;20083;-81
2021/09/15 07:42:48;;;;;;;2.45;1.60;;;10.60;78.00;;;;;;5051580;28;20013;-79
2021/09/15 07:45:17;;;;;;;6.00;1.67;;;10.60;78.10;;;;;;5037846;28;20216;-78
2021/09/15 07:47:43;;;;;;;5.03;1.80;;;10.60;77.90;;;;;;5055567;28;20053;-77
2021/09/15 07:50:10;;;;;;;2.10;1.55;;;10.70;78.20;;;;;;5055441;28;20060;-79
2021/09/15 07:52:38;;;;;;;2.55;1.08;;;10.70;78.10;;;;;;5048783;28;20111;-78
2021/09/15 07:55:05;;;;;;;4.57;1.88;;;10.80;77.70;;;;;;5037507;28;20033;-79
2021/09/15 07:57:30;;;;;;;1.83;1.15;;;10.80;77.30;;;;;;5037681;28;20394;-79
2021/09/15 07:59:56;;;;;;;5.18;1.30;;;10.80;76.80;;;;;;5054760;28;20501;-83
2021/09/15 08:02:22;;;;;;;7.70;2.17;;;10.70;75.80;;;;;;5055558;28;20490;-80
2021/09/15 08:04:48;;;;;;;2.20;1.15;;;10.70;76.10;;;;;;5055544;28;20017;-80
2021/09/15 08:07:13;;;;;;;7.18;1.40;;;10.70;75.90;;;;;;5037586;28;20025;-80
2021/09/15 08:09:39;;;;;;;1.80;1.05;;;10.70;75.40;;;;;;5055154;28;20041;-81
2021/09/15 08:12:06;;;;;;;2.60;1.35;;;10.70;75.10;;;;;;5055235;28;20032;-81
2021/09/15 08:14:32;;;;;;;3.10;1.20;;;10.70;74.70;;;;;;5055298;28;20029;-79
2021/09/15 08:16:58;;;;;;;2.33;1.88;;;10.70;74.70;;;;;;5055783;28;20023;-78
2021/09/15 08:19:26;;;;;;;3.42;1.35;;;10.70;74.60;;;;;;5039255;28;20051;-80
2021/09/15 08:21:53;;;;;;;2.75;0.95;;;10.80;74.30;;;;;;5056132;28;20036;-78
2021/09/15 08:24:19;;;;;;;1.48;1.15;;;10.90;74.10;;;;;;5057312;28;20473;-80
2021/09/15 08:26:45;;;;;;;3.88;1.35;;;11.00;74.00;;;;;;5055398;28;20056;-81
2021/09/15 08:29:10;;;;;;;2.38;1.20;;;11.00;73.40;;;;;;5056411;28;20108;-80
2021/09/15 08:31:36;;;;;;;5.78;1.02;;;11.10;73.10;;;;;;5035709;28;20029;-80
2021/09/15 08:34:02;;;;;;;1.85;1.42;;;11.10;72.70;;;;;;5036539;28;20111;-79
2021/09/15 08:36:28;;;;;;;3.00;1.52;;;11.00;72.80;;;;;;5054862;28;20128;-79
2021/09/15 08:39:00;;;;;;;5.32;2.25;;;11.00;73.40;;;;;;5054772;28;20039;-78
2021/09/15 08:41:26;;;;;;;2.33;1.33;;;11.00;73.50;;;;;;5054689;28;20086;-80
2021/09/15 08:43:52;;;;;;;3.42;1.10;;;11.10;74.10;;;;;;5053437;28;20025;-79
2021/09/15 08:46:20;;;;;;;3.55;1.30;;;11.10;73.30;;;;;;5054550;28;20028;-81
2021/09/15 08:48:47;;;;;;;2.65;1.30;;;11.20;73.50;;;;;;5054493;28;20025;-79
2021/09/15 08:51:16;;;;;;;4.40;1.35;;;11.20;73.50;;;;;;5054533;28;20474;-79
2021/09/15 08:53:45;;;;;;;4.18;1.70;;;11.30;73.10;;;;;;5036398;28;20064;-80
2021/09/15 08:56:11;;;;;;;5.25;2.72;;;11.30;73.30;;;;;;5053920;28;20047;-79
2021/09/15 08:58:38;;;;;;;6.87;1.77;;;11.40;73.30;;;;;;5054298;28;20014;-80
2021/09/15 09:01:15;;;;;;;3.63;1.27;;;11.40;72.80;;;;;;5036619;28;20089;-80
2021/09/15 09:03:41;;;;;;;8.45;1.88;;;11.40;72.30;;;;;;5051695;28;20021;-80
2021/09/15 09:06:12;;;;;;;4.78;1.65;;;11.40;72.20;;;;;;5054090;28;20028;-81
2021/09/15 09:08:40;;;;;;;3.58;1.42;;;11.40;72.20;;;;;;5053517;28;20727;-81
2021/09/15 09:11:06;;;;;;;1.73;1.10;;;11.30;72.50;;;;;;5051637;28;20033;-81
2021/09/15 09:13:34;;;;;;;2.42;1.33;;;11.40;71.70;;;;;;5053443;28;20139;-80
2021/09/15 09:16:03;;;;;;;6.97;1.52;;;11.40;70.90;;;;;;5037263;28;20025;-82
2021/09/15 09:18:29;;;;;;;6.22;2.08;;;11.30;71.10;;;;;;5053462;28;20041;-82
2021/09/15 09:20:54;;;;;;;3.55;1.80;;;11.30;71.50;;;;;;5053530;28;20102;-78
2021/09/15 09:23:20;;;;;;;3.00;1.20;;;11.40;71.30;;;;;;5051046;28;20175;-79
2021/09/15 09:25:57;;;;;;;4.00;1.08;;;11.40;71.10;;;;;;5053461;28;20029;-81
2021/09/15 09:28:26;;;;;;;4.90;1.60;;;11.40;70.80;;;;;;5053731;28;20093;-80
2021/09/15 09:30:54;;;;;;;2.85;1.33;;;11.40;70.40;;;;;;5042507;28;20041;-81
2021/09/15 09:33:21;;;;;;;2.45;1.42;;;11.50;70.40;;;;;;5034882;28;20028;-81
2021/09/15 09:35:53;;;;;;;5.60;1.48;;;11.50;69.50;;;;;;5053519;28;20033;-77
2021/09/15 09:38:29;;;;;;;3.35;1.55;;;11.40;69.00;;;;;;5053015;28;20496;-81
2021/09/15 09:41:11;;;;;;;6.03;1.35;;;11.50;69.50;;;;;;5048626;28;20026;-79
2021/09/15 09:43:51;;;;;;;1.60;1.40;;;11.60;69.40;;;;;;5052898;28;20382;-82
2021/09/15 09:46:20;;;;;;;2.13;1.40;;;11.80;68.60;;;;;;5049015;28;20028;-80
2021/09/15 09:48:48;;;;;;;2.35;1.40;;;12.40;67.60;;;;;;5052753;28;20036;-81
2021/09/15 09:51:37;;;;;;;3.20;1.35;;;12.70;65.40;;;;;;5052673;28;20175;-82
2021/09/15 09:54:26;;;;;;;2.83;1.15;;;13.10;64.90;;;;;;5051594;28;20025;-83
2021/09/15 09:56:54;;;;;;;3.28;1.80;;;13.20;64.40;;;;;;5053415;28;20060;-79
2021/09/15 09:59:21;;;;;;;3.60;1.83;;;13.40;62.80;;;;;;5052855;28;20429;-82
2021/09/15 10:01:55;;;;;;;6.68;1.92;;;13.30;62.80;;;;;;5053167;28;20110;-81
2021/09/15 10:04:21;;;;;;;5.30;1.77;;;13.40;63.20;;;;;;5050791;28;20028;-80
2021/09/15 10:06:48;;;;;;;2.60;1.30;;;13.50;62.30;;;;;;5052272;28;20516;-79
2021/09/15 10:09:14;;;;;;;2.65;1.27;;;13.50;61.80;;;;;;5053426;28;20128;-81
2021/09/15 10:11:42;;;;;;;4.47;1.55;;;13.40;61.30;;;;;;5052543;28;20024;-82
2021/09/15 10:14:10;;;;;;;3.58;2.00;;;13.30;61.50;;;;;;5052549;28;20032;-80
2021/09/15 10:16:44;;;;;;;3.92;2.42;;;13.30;61.80;;;;;;5035655;28;20029;-81
2021/09/15 10:19:11;;;;;;;5.32;1.42;;;13.50;62.10;;;;;;5052152;28;20037;-80
2021/09/15 10:21:37;;;;;;;2.72;1.27;;;13.70;60.30;;;;;;5053286;28;20021;-83
2021/09/15 10:24:04;;;;;;;2.25;1.30;;;13.70;59.00;;;;;;5053611;28;20382;-82
2021/09/15 10:26:39;;;;;;;3.28;1.63;;;13.50;58.80;;;;;;5032921;28;20038;-81
2021/09/15 10:29:24;;;;;;;2.42;1.63;;;13.40;60.20;;;;;;5034235;28;20063;-82
2021/09/15 10:31:59;;;;;;;3.65;1.83;;;13.40;60.70;;;;;;5053848;28;20020;-81
2021/09/15 10:34:40;;;;;;;7.75;2.88;;;13.40;60.70;;;;;;5051760;28;20400;-83
2021/09/15 10:37:11;;;;;;;4.43;2.78;;;13.60;60.70;;;;;;5052677;28;20021;-83
2021/09/15 10:39:56;;;;;;;4.00;2.38;;;13.90;59.80;;;;;;5052068;28;20025;-82
2021/09/15 10:42:55;;;;;;;6.05;2.65;;;14.10;59.50;;;;;;5051798;28;20104;-81
2021/09/15 10:45:23;;;;;;;5.68;3.15;;;14.30;59.20;;;;;;5050489;28;20045;-81
2021/09/15 10:48:13;;;;;;;5.18;1.65;;;14.30;58.80;;;;;;5052289;28;20017;-84
2021/09/15 10:50:40;;;;;;;2.33;1.33;;;14.30;58.60;;;;;;5047960;28;20037;-85
2021/09/15 10:53:17;;;;;;;5.90;1.83;;;14.30;58.00;;;;;;5051848;28;20021;-80
2021/09/15 10:55:44;;;;;;;8.10;2.97;;;14.30;58.00;;;;;;5050130;28;20033;-80
2021/09/15 10:58:18;;;;;;;6.22;1.58;;;14.30;58.20;;;;;;5033452;28;20474;-80
2021/09/15 11:01:01;;;;;;;6.53;2.30;;;14.40;57.70;;;;;;5050257;28;20114;-81
2021/09/15 11:03:30;;;;;;;5.22;1.10;;;14.40;58.20;;;;;;5052927;28;20070;-80
2021/09/15 11:06:19;;;;;;;2.92;1.60;;;14.30;57.20;;;;;;5051936;28;20401;-81
2021/09/15 11:08:49;;;;;;;3.75;1.92;;;14.30;57.90;;;;;;5033408;28;20021;-80
2021/09/15 11:11:25;;;;;;;4.15;1.52;;;14.40;57.70;;;;;;5051233;28;20025;-80
2021/09/15 11:14:07;;;;;;;5.20;1.70;;;14.50;57.60;;;;;;5047009;28;20535;-80
2021/09/15 11:16:39;;;;;;;4.40;2.33;;;14.40;57.30;;;;;;5037965;28;20028;-81
2021/09/15 11:19:14;;;;;;;7.57;3.63;;;14.40;57.30;;;;;;5039197;28;20116;-80
2021/09/15 11:21:56;;;;;;;6.05;1.27;;;14.40;57.40;;;;;;5036838;28;20028;-80
2021/09/15 11:24:25;;;;;;;6.07;1.10;;;14.30;56.40;;;;;;5037623;28;20036;-81
2021/09/15 11:26:55;;;;;;;3.08;1.20;;;14.30;56.20;;;;;;5056023;28;20024;-83
2021/09/15 11:29:52;;;;;;;4.10;1.17;;;14.20;56.50;;;;;;4982503;28;1465573;-80
2021/09/15 11:32:24;;;;;;;2.20;1.27;;;14.20;56.00;;;;;;5037251;28;20085;-83
2021/09/15 11:34:52;;;;;;;4.82;1.35;;;14.30;56.20;;;;;;5018794;28;20029;-80
2021/09/15 11:37:26;;;;;;;2.38;0.88;;;14.30;55.40;;;;;;5035719;28;20091;-81
2021/09/15 11:40:00;;;;;;;2.90;1.23;;;14.20;55.10;;;;;;5034506;28;20028;-80
2021/09/15 11:42:32;;;;;;;1.05;0.82;;;14.20;55.30;;;;;;5034088;28;20029;-82
2021/09/15 11:45:22;;;;;;;4.75;1.77;;;14.20;55.40;;;;;;5035567;28;20033;-82
2021/09/15 11:47:50;;;;;;;3.05;1.50;;;14.40;55.10;;;;;;5035702;28;20021;-81
2021/09/15 11:50:21;;;;;;;4.60;1.30;;;14.30;55.10;;;;;;5035233;28;20037;-84
2021/09/15 11:53:10;;;;;;;3.15;1.42;;;14.20;55.10;;;;;;5035561;28;20102;-83
2021/09/15 11:55:40;;;;;;;3.58;1.27;;;14.20;55.20;;;;;;5035511;28;20416;-80
2021/09/15 11:58:06;;;;;;;6.85;1.48;;;14.40;55.50;;;;;;5026588;28;20402;-83
2021/09/15 12:00:33;;;;;;;3.60;1.10;;;14.60;54.60;;;;;;5016635;28;20037;-83
2021/09/15 12:03:02;;;;;;;2.67;0.82;;;14.70;54.20;;;;;;5035429;28;20155;-82
2021/09/15 12:05:29;;;;;;;6.95;1.67;;;14.90;53.50;;;;;;5017707;28;20362;-83
2021/09/15 12:07:55;;;;;;;1.98;1.02;;;14.90;52.40;;;;;;5034791;28;20397;-84
2021/09/15 12:10:22;;;;;;;2.05;1.30;;;15.00;52.00;;;;;;5017341;28;20032;-82
2021/09/15 12:12:50;;;;;;;3.70;0.97;;;15.00;50.80;;;;;;5034800;28;20024;-81
2021/09/15 12:15:17;;;;;;;2.85;1.55;;;14.80;51.00;;;;;;5017365;28;20113;-81
2021/09/15 12:17:53;;;;;;;4.95;1.17;;;14.70;51.30;;;;;;5035479;28;20014;-82
2021/09/15 12:20:38;;;;;;;4.18;1.23;;;14.50;51.30;;;;;;5031108;28;20026;-84
2021/09/15 12:23:07;;;;;;;5.32;1.10;;;14.50;51.80;;;;;;5035147;28;20085;-82
2021/09/15 12:25:33;;;;;;;4.00;1.00;;;14.50;50.50;;;;;;5035422;28;20033;-82
2021/09/15 12:28:00;;;;;;;3.55;1.08;;;14.50;50.00;;;;;;5017308;28;20018;-82
2021/09/15 12:30:26;;;;;;;2.03;1.23;;;14.60;50.40;;;;;;5016789;28;20107;-83
2021/09/15 12:33:00;;;;;;;5.00;1.20;;;14.60;50.70;;;;;;5034239;28;20021;-82
2021/09/15 12:35:35;;;;;;;3.05;1.65;;;14.80;50.60;;;;;;5031859;28;20095;-83
2021/09/15 12:38:07;;;;;;;5.18;1.77;;;15.00;50.90;;;;;;5034536;28;20021;-81
2021/09/15 12:40:35;;;;;;;3.72;1.15;;;15.20;50.10;;;;;;5032418;28;20040;-82
2021/09/15 12:43:04;;;;;;;4.68;0.88;;;15.30;49.00;;;;;;5016141;28;20013;-84
2021/09/15 12:45:32;;;;;;;3.60;1.55;;;15.10;48.30;;;;;;5034772;28;20056;-80
2021/09/15 12:47:59;;;;;;;2.83;1.50;;;14.90;49.00;;;;;;5034306;28;20076;-80
2021/09/15 12:50:30;;;;;;;1.53;1.07;;;14.80;49.40;;;;;;5034079;28;20061;-81
2021/09/15 12:53:09;;;;;;;4.07;1.45;;;14.60;49.40;;;;;;5015926;28;20030;-81
2021/09/15 12:55:44;;;;;;;7.05;1.10;;;14.40;50.10;;;;;;5016709;28;20083;-81
2021/09/15 12:58:11;;;;;;;2.00;1.20;;;14.20;50.50;;;;;;5018326;28;20037;-80